sensor_id;sensor_type;location;lat;lon;timestamp;pressure;altitude;pressure_sealevel;temperature;humidity
44297;BME280;51842;47.450;8.654;2023-05-16T00:00:25;95205.03;;;8.54;100.00
44297;BME280;51842;47.450;8.654;2023-05-16T00:02:51;95191.53;;;8.56;100.00
44297;BME280;51842;47.450;8.654;2023-05-16T00:05:17;95189.38;;;8.58;100.00
44297;BME280;51842;47.450;8.654;2023-05-16T00:07:45;95195.25;;;8.60;100.00
44297;BME280;51842;47.450;8.654;2023-05-16T00:10:12;95192.31;;;8.62;100.00
44297;BME280;51842;47.450;8.654;2023-05-16T00:12:39;95195.28;;;8.65;100.00
44297;BME280;51842;47.450;8.654;2023-05-16T00:15:06;95195.53;;;8.69;100.00
44297;BME280;51842;47.450;8.654;2023-05-16T00:17:33;95191.56;;;8.71;100.00
44297;BME280;51842;47.450;8.654;2023-05-16T00:20:01;95187.06;;;8.72;100.00
44297;BME280;51842;47.450;8.654;2023-05-16T00:22:27;95190.75;;;8.66;100.00
44297;BME280;51842;47.450;8.654;2023-05-16T00:24:53;95189.16;;;8.70;100.00
44297;BME280;51842;47.450;8.654;2023-05-16T00:27:18;95192.63;;;8.75;100.00
44297;BME280;51842;47.450;8.654;2023-05-16T00:29:44;95187.59;;;8.79;100.00
44297;BME280;51842;47.450;8.654;2023-05-16T00:32:10;95185.47;;;8.81;100.00
44297;BME280;51842;47.450;8.654;2023-05-16T00:34:35;95181.75;;;8.82;100.00
44297;BME280;51842;47.450;8.654;2023-05-16T00:37:01;95186.53;;;8.85;100.00
44297;BME280;51842;47.450;8.654;2023-05-16T00:39:27;95183.09;;;8.85;100.00
44297;BME280;51842;47.450;8.654;2023-05-16T00:41:53;95179.13;;;8.87;100.00
44297;BME280;51842;47.450;8.654;2023-05-16T00:44:19;95175.41;;;8.88;100.00
44297;BME280;51842;47.450;8.654;2023-05-16T00:46:44;95176.47;;;8.87;100.00
44297;BME280;51842;47.450;8.654;2023-05-16T00:49:11;95178.06;;;8.88;100.00
44297;BME280;51842;47.450;8.654;2023-05-16T00:51:38;95173.53;;;8.89;100.00
44297;BME280;51842;47.450;8.654;2023-05-16T00:54:05;95176.47;;;8.92;100.00
44297;BME280;51842;47.450;8.654;2023-05-16T00:56:32;95176.47;;;8.97;100.00
44297;BME280;51842;47.450;8.654;2023-05-16T00:58:58;95166.38;;;8.99;100.00
44297;BME280;51842;47.450;8.654;2023-05-16T01:01:25;95164.53;;;9.00;100.00
44297;BME280;51842;47.450;8.654;2023-05-16T01:03:52;95163.19;;;8.97;100.00
44297;BME280;51842;47.450;8.654;2023-05-16T01:06:19;95169.56;;;8.96;100.00
44297;BME280;51842;47.450;8.654;2023-05-16T01:08:45;95168.22;;;8.99;100.00
44297;BME280;51842;47.450;8.654;2023-05-16T01:14:16;95156.03;;;9.03;100.00
44297;BME280;51842;47.450;8.654;2023-05-16T01:16:55;95153.38;;;9.03;100.00
44297;BME280;51842;47.450;8.654;2023-05-16T01:20:05;95154.97;;;9.04;100.00
44297;BME280;51842;47.450;8.654;2023-05-16T01:25:38;95155.75;;;9.10;100.00
44297;BME280;51842;47.450;8.654;2023-05-16T01:28:05;95154.97;;;9.09;100.00
44297;BME280;51842;47.450;8.654;2023-05-16T01:30:37;95153.91;;;9.10;100.00
44297;BME280;51842;47.450;8.654;2023-05-16T01:33:03;95159.22;;;9.10;100.00
44297;BME280;51842;47.450;8.654;2023-05-16T01:35:30;95156.56;;;9.10;100.00
44297;BME280;51842;47.450;8.654;2023-05-16T01:38:26;95165.06;;;9.12;100.00
44297;BME280;51842;47.450;8.654;2023-05-16T01:41:11;95155.75;;;9.15;100.00
44297;BME280;51842;47.450;8.654;2023-05-16T01:43:48;95157.38;;;9.16;100.00
44297;BME280;51842;47.450;8.654;2023-05-16T01:46:23;95164.53;;;9.15;100.00
44297;BME280;51842;47.450;8.654;2023-05-16T01:49:34;95164.00;;;9.18;100.00
44297;BME280;51842;47.450;8.654;2023-05-16T01:52:12;95154.97;;;9.19;100.00
44297;BME280;51842;47.450;8.654;2023-05-16T01:54:44;95155.50;;;9.21;100.00
44297;BME280;51842;47.450;8.654;2023-05-16T01:57:12;95150.72;;;9.23;100.00
44297;BME280;51842;47.450;8.654;2023-05-16T01:59:40;95154.69;;;9.26;100.00
44297;BME280;51842;47.450;8.654;2023-05-16T02:02:07;95151.78;;;9.27;100.00
44297;BME280;51842;47.450;8.654;2023-05-16T02:04:33;95154.16;;;9.29;100.00
44297;BME280;51842;47.450;8.654;2023-05-16T02:06:59;95153.88;;;9.31;100.00
44297;BME280;51842;47.450;8.654;2023-05-16T02:09:26;95155.50;;;9.32;100.00
44297;BME280;51842;47.450;8.654;2023-05-16T02:11:52;95150.19;;;9.32;100.00
44297;BME280;51842;47.450;8.654;2023-05-16T02:14:18;95148.31;;;9.32;100.00
44297;BME280;51842;47.450;8.654;2023-05-16T02:16:44;95148.03;;;9.34;100.00
44297;BME280;51842;47.450;8.654;2023-05-16T02:19:09;95150.44;;;9.35;100.00
44297;BME280;51842;47.450;8.654;2023-05-16T02:21:35;95150.16;;;9.37;100.00
44297;BME280;51842;47.450;8.654;2023-05-16T02:24:01;95144.31;;;9.40;100.00
44297;BME280;51842;47.450;8.654;2023-05-16T02:26:27;95155.50;;;9.42;100.00
44297;BME280;51842;47.450;8.654;2023-05-16T02:28:52;95144.84;;;9.42;100.00
44297;BME280;51842;47.450;8.654;2023-05-16T02:31:30;95145.66;;;9.42;100.00
44297;BME280;51842;47.450;8.654;2023-05-16T02:33:57;95144.84;;;9.42;100.00
44297;BME280;51842;47.450;8.654;2023-05-16T02:36:23;95144.59;;;9.43;100.00
44297;BME280;51842;47.450;8.654;2023-05-16T02:38:49;95138.47;;;9.43;100.00
44297;BME280;51842;47.450;8.654;2023-05-16T02:41:15;95144.06;;;9.46;100.00
44297;BME280;51842;47.450;8.654;2023-05-16T02:43:41;95135.56;;;9.44;100.00
44297;BME280;51842;47.450;8.654;2023-05-16T02:46:32;95132.34;;;9.47;100.00
44297;BME280;51842;47.450;8.654;2023-05-16T02:48:59;95141.66;;;9.45;100.00
44297;BME280;51842;47.450;8.654;2023-05-16T02:51:27;95141.66;;;9.45;100.00
44297;BME280;51842;47.450;8.654;2023-05-16T02:53:54;95140.06;;;9.44;100.00
44297;BME280;51842;47.450;8.654;2023-05-16T02:56:21;95131.56;;;9.42;100.00
44297;BME280;51842;47.450;8.654;2023-05-16T02:58:49;95130.50;;;9.43;100.00
44297;BME280;51842;47.450;8.654;2023-05-16T03:01:16;95136.63;;;9.43;100.00
44297;BME280;51842;47.450;8.654;2023-05-16T03:03:42;95135.56;;;9.44;100.00
44297;BME280;51842;47.450;8.654;2023-05-16T03:06:07;95137.13;;;9.45;100.00
44297;BME280;51842;47.450;8.654;2023-05-16T03:08:33;95131.56;;;9.47;100.00
44297;BME280;51842;47.450;8.654;2023-05-16T03:11:00;95128.91;;;9.47;100.00
44297;BME280;51842;47.450;8.654;2023-05-16T03:13:26;95130.50;;;9.48;100.00
44297;BME280;51842;47.450;8.654;2023-05-16T03:15:52;95123.31;;;9.48;100.00
44297;BME280;51842;47.450;8.654;2023-05-16T03:18:18;95125.16;;;9.48;100.00
44297;BME280;51842;47.450;8.654;2023-05-16T03:20:44;95118.28;;;9.47;100.00
44297;BME280;51842;47.450;8.654;2023-05-16T03:23:09;95112.97;;;9.47;100.00
44297;BME280;51842;47.450;8.654;2023-05-16T03:25:36;95114.81;;;9.46;100.00
44297;BME280;51842;47.450;8.654;2023-05-16T03:28:06;95115.88;;;9.45;100.00
44297;BME280;51842;47.450;8.654;2023-05-16T03:30:35;95114.81;;;9.41;100.00
44297;BME280;51842;47.450;8.654;2023-05-16T03:33:01;95121.47;;;9.44;100.00
44297;BME280;51842;47.450;8.654;2023-05-16T03:35:27;95117.19;;;9.43;100.00
44297;BME280;51842;47.450;8.654;2023-05-16T03:37:53;95125.16;;;9.43;100.00
44297;BME280;51842;47.450;8.654;2023-05-16T03:40:19;95126.78;;;9.39;100.00
44297;BME280;51842;47.450;8.654;2023-05-16T03:42:45;95126.00;;;9.38;100.00
44297;BME280;51842;47.450;8.654;2023-05-16T03:45:11;95121.47;;;9.39;100.00
44297;BME280;51842;47.450;8.654;2023-05-16T03:47:37;95122.78;;;9.41;100.00
44297;BME280;51842;47.450;8.654;2023-05-16T03:50:04;95120.38;;;9.40;100.00
44297;BME280;51842;47.450;8.654;2023-05-16T03:52:30;95117.72;;;9.40;100.00
44297;BME280;51842;47.450;8.654;2023-05-16T03:54:56;95119.59;;;9.39;100.00
44297;BME280;51842;47.450;8.654;2023-05-16T03:57:24;95117.72;;;9.40;100.00
44297;BME280;51842;47.450;8.654;2023-05-16T03:59:49;95127.56;;;9.39;100.00
44297;BME280;51842;47.450;8.654;2023-05-16T04:02:15;95120.66;;;9.38;100.00
44297;BME280;51842;47.450;8.654;2023-05-16T04:04:41;95131.31;;;9.38;100.00
44297;BME280;51842;47.450;8.654;2023-05-16T04:07:06;95128.66;;;9.38;100.00
44297;BME280;51842;47.450;8.654;2023-05-16T04:09:32;95129.72;;;9.37;100.00
44297;BME280;51842;47.450;8.654;2023-05-16T04:11:58;95131.56;;;9.37;100.00
44297;BME280;51842;47.450;8.654;2023-05-16T04:14:26;95137.69;;;9.37;100.00
44297;BME280;51842;47.450;8.654;2023-05-16T04:16:52;95142.72;;;9.39;100.00
44297;BME280;51842;47.450;8.654;2023-05-16T04:19:18;95139.00;;;9.40;100.00
44297;BME280;51842;47.450;8.654;2023-05-16T04:21:43;95146.72;;;9.41;100.00
44297;BME280;51842;47.450;8.654;2023-05-16T04:24:09;95145.66;;;9.42;100.00
44297;BME280;51842;47.450;8.654;2023-05-16T04:26:36;95141.41;;;9.46;100.00
44297;BME280;51842;47.450;8.654;2023-05-16T04:29:02;95137.41;;;9.49;100.00
44297;BME280;51842;47.450;8.654;2023-05-16T04:31:28;95146.69;;;9.52;100.00
44297;BME280;51842;47.450;8.654;2023-05-16T04:33:54;95137.13;;;9.50;100.00
44297;BME280;51842;47.450;8.654;2023-05-16T04:36:20;95136.06;;;9.52;100.00
44297;BME280;51842;47.450;8.654;2023-05-16T04:38:47;95134.19;;;9.52;100.00
44297;BME280;51842;47.450;8.654;2023-05-16T04:41:13;95138.19;;;9.60;100.00
44297;BME280;51842;47.450;8.654;2023-05-16T04:43:39;95127.81;;;9.63;100.00
44297;BME280;51842;47.450;8.654;2023-05-16T04:46:05;95133.91;;;9.64;100.00
44297;BME280;51842;47.450;8.654;2023-05-16T04:48:34;95128.84;;;9.67;100.00
44297;BME280;51842;47.450;8.654;2023-05-16T04:51:00;95137.38;;;9.69;100.00
44297;BME280;51842;47.450;8.654;2023-05-16T04:53:26;95134.19;;;9.67;100.00
44297;BME280;51842;47.450;8.654;2023-05-16T04:55:52;95135.78;;;9.68;100.00
44297;BME280;51842;47.450;8.654;2023-05-16T04:58:18;95135.25;;;9.66;100.00
44297;BME280;51842;47.450;8.654;2023-05-16T05:00:43;95140.56;;;9.71;100.00
44297;BME280;51842;47.450;8.654;2023-05-16T05:03:09;95139.75;;;9.76;100.00
44297;BME280;51842;47.450;8.654;2023-05-16T05:05:35;95135.47;;;9.80;100.00
44297;BME280;51842;47.450;8.654;2023-05-16T05:08:00;95140.78;;;9.85;100.00
44297;BME280;51842;47.450;8.654;2023-05-16T05:10:26;95136.81;;;9.88;100.00
44297;BME280;51842;47.450;8.654;2023-05-16T05:12:53;95139.22;;;9.84;100.00
44297;BME280;51842;47.450;8.654;2023-05-16T05:15:18;95133.59;;;9.81;100.00
44297;BME280;51842;47.450;8.654;2023-05-16T05:17:44;95145.56;;;9.88;100.00
44297;BME280;51842;47.450;8.654;2023-05-16T05:20:11;95144.25;;;9.91;100.00
44297;BME280;51842;47.450;8.654;2023-05-16T05:22:37;95141.28;;;9.92;100.00
44297;BME280;51842;47.450;8.654;2023-05-16T05:25:04;95143.94;;;9.98;100.00
44297;BME280;51842;47.450;8.654;2023-05-16T05:27:30;95152.44;;;10.00;100.00
44297;BME280;51842;47.450;8.654;2023-05-16T05:29:56;95149.78;;;10.00;100.00
44297;BME280;51842;47.450;8.654;2023-05-16T05:32:21;95148.72;;;10.01;100.00
44297;BME280;51842;47.450;8.654;2023-05-16T05:34:47;95149.53;;;10.06;100.00
44297;BME280;51842;47.450;8.654;2023-05-16T05:37:13;95147.41;;;10.03;100.00
44297;BME280;51842;47.450;8.654;2023-05-16T05:39:39;95150.81;;;10.09;100.00
44297;BME280;51842;47.450;8.654;2023-05-16T05:42:05;95144.69;;;10.08;100.00
44297;BME280;51842;47.450;8.654;2023-05-16T05:44:31;95154.56;;;10.08;100.00
44297;BME280;51842;47.450;8.654;2023-05-16T05:46:58;95149.47;;;10.11;100.00
44297;BME280;51842;47.450;8.654;2023-05-16T05:49:25;95144.41;;;10.15;100.00
44297;BME280;51842;47.450;8.654;2023-05-16T05:51:51;95147.88;;;10.15;100.00
44297;BME280;51842;47.450;8.654;2023-05-16T05:54:18;95150.50;;;10.20;100.00
44297;BME280;51842;47.450;8.654;2023-05-16T05:56:44;95161.44;;;10.29;100.00
44297;BME280;51842;47.450;8.654;2023-05-16T05:59:10;95157.44;;;10.27;100.00
44297;BME280;51842;47.450;8.654;2023-05-16T06:01:36;95159.56;;;10.30;100.00
44297;BME280;51842;47.450;8.654;2023-05-16T06:04:03;95150.22;;;10.37;100.00
44297;BME280;51842;47.450;8.654;2023-05-16T06:06:29;95159.50;;;10.40;100.00
44297;BME280;51842;47.450;8.654;2023-05-16T06:08:55;95161.38;;;10.45;100.00
44297;BME280;51842;47.450;8.654;2023-05-16T06:11:21;95162.16;;;10.45;100.00
44297;BME280;51842;47.450;8.654;2023-05-16T06:13:47;95163.72;;;10.51;100.00
44297;BME280;51842;47.450;8.654;2023-05-16T06:16:13;95158.38;;;10.56;100.00
44297;BME280;51842;47.450;8.654;2023-05-16T06:18:39;95167.69;;;10.59;100.00
44297;BME280;51842;47.450;8.654;2023-05-16T06:21:05;95171.91;;;10.65;100.00
44297;BME280;51842;47.450;8.654;2023-05-16T06:23:32;95169.53;;;10.69;100.00
44297;BME280;51842;47.450;8.654;2023-05-16T06:25:58;95168.94;;;10.72;100.00
44297;BME280;51842;47.450;8.654;2023-05-16T06:28:24;95166.00;;;10.78;100.00
44297;BME280;51842;47.450;8.654;2023-05-16T06:30:50;95171.81;;;10.80;100.00
44297;BME280;51842;47.450;8.654;2023-05-16T06:33:17;95175.81;;;10.83;100.00
44297;BME280;51842;47.450;8.654;2023-05-16T06:35:44;95172.34;;;10.87;100.00
44297;BME280;51842;47.450;8.654;2023-05-16T06:38:10;95172.59;;;10.86;100.00
44297;BME280;51842;47.450;8.654;2023-05-16T06:40:36;95178.69;;;10.92;100.00
44297;BME280;51842;47.450;8.654;2023-05-16T06:43:02;95170.66;;;10.97;100.00
44297;BME280;51842;47.450;8.654;2023-05-16T06:45:28;95173.06;;;10.98;99.72
44297;BME280;51842;47.450;8.654;2023-05-16T06:47:55;95173.59;;;11.00;100.00
44297;BME280;51842;47.450;8.654;2023-05-16T06:50:21;95168.44;;;11.09;99.91
44297;BME280;51842;47.450;8.654;2023-05-16T06:52:47;95166.63;;;11.04;99.26
44297;BME280;51842;47.450;8.654;2023-05-16T06:55:13;95172.44;;;11.11;98.73
44297;BME280;51842;47.450;8.654;2023-05-16T06:57:39;95175.53;;;11.24;98.48
44297;BME280;51842;47.450;8.654;2023-05-16T07:00:06;95178.97;;;11.29;98.19
44297;BME280;51842;47.450;8.654;2023-05-16T07:02:32;95182.09;;;11.37;97.74
44297;BME280;51842;47.450;8.654;2023-05-16T07:04:58;95175.88;;;11.51;96.53
44297;BME280;51842;47.450;8.654;2023-05-16T07:07:24;95182.66;;;11.68;96.38
44297;BME280;51842;47.450;8.654;2023-05-16T07:09:50;95175.78;;;11.91;93.91
44297;BME280;51842;47.450;8.654;2023-05-16T07:12:16;95177.16;;;12.12;93.76
44297;BME280;51842;47.450;8.654;2023-05-16T07:14:42;95179.44;;;12.24;91.46
44297;BME280;51842;47.450;8.654;2023-05-16T07:17:09;95175.41;;;12.26;89.61
44297;BME280;51842;47.450;8.654;2023-05-16T07:19:35;95180.13;;;12.35;90.06
44297;BME280;51842;47.450;8.654;2023-05-16T07:22:01;95181.50;;;12.32;88.86
44297;BME280;51842;47.450;8.654;2023-05-16T07:24:27;95179.72;;;12.46;89.55
44297;BME280;51842;47.450;8.654;2023-05-16T07:26:52;95188.78;;;12.69;90.21
44297;BME280;51842;47.450;8.654;2023-05-16T07:29:18;95185.03;;;12.70;88.98
44297;BME280;51842;47.450;8.654;2023-05-16T07:31:44;95180.22;;;12.72;89.38
44297;BME280;51842;47.450;8.654;2023-05-16T07:34:10;95181.66;;;12.84;89.06
44297;BME280;51842;47.450;8.654;2023-05-16T07:36:37;95181.22;;;12.95;88.39
44297;BME280;51842;47.450;8.654;2023-05-16T07:39:03;95183.59;;;12.97;86.92
44297;BME280;51842;47.450;8.654;2023-05-16T07:41:29;95182.44;;;13.03;86.89
44297;BME280;51842;47.450;8.654;2023-05-16T07:43:58;95183.53;;;13.21;85.03
44297;BME280;51842;47.450;8.654;2023-05-16T07:46:24;95184.41;;;13.35;84.45
44297;BME280;51842;47.450;8.654;2023-05-16T07:48:49;95179.19;;;13.44;82.69
44297;BME280;51842;47.450;8.654;2023-05-16T07:51:15;95183.66;;;13.49;83.52
44297;BME280;51842;47.450;8.654;2023-05-16T07:53:41;95179.06;;;13.68;83.73
44297;BME280;51842;47.450;8.654;2023-05-16T07:56:07;95178.47;;;13.57;81.73
44297;BME280;51842;47.450;8.654;2023-05-16T07:58:33;95178.06;;;13.64;82.65
44297;BME280;51842;47.450;8.654;2023-05-16T08:00:59;95186.44;;;13.76;83.62
44297;BME280;51842;47.450;8.654;2023-05-16T08:03:25;95184.53;;;13.77;81.09
44297;BME280;51842;47.450;8.654;2023-05-16T08:05:51;95184.94;;;13.84;80.47
44297;BME280;51842;47.450;8.654;2023-05-16T08:08:17;95185.75;;;13.84;80.75
44297;BME280;51842;47.450;8.654;2023-05-16T08:10:43;95184.53;;;13.77;80.93
44297;BME280;51842;47.450;8.654;2023-05-16T08:13:09;95190.91;;;13.81;81.39
44297;BME280;51842;47.450;8.654;2023-05-16T08:15:35;95181.47;;;13.83;80.05
44297;BME280;51842;47.450;8.654;2023-05-16T08:18:01;95178.41;;;13.76;80.25
44297;BME280;51842;47.450;8.654;2023-05-16T08:20:27;95181.81;;;13.96;80.37
44297;BME280;51842;47.450;8.654;2023-05-16T08:22:53;95188.53;;;13.93;78.87
44297;BME280;51842;47.450;8.654;2023-05-16T08:25:19;95187.16;;;13.96;79.99
44297;BME280;51842;47.450;8.654;2023-05-16T08:27:48;95190.03;;;13.99;80.87
44297;BME280;51842;47.450;8.654;2023-05-16T08:30:14;95184.38;;;13.87;80.14
44297;BME280;51842;47.450;8.654;2023-05-16T08:32:40;95188.59;;;13.74;80.01
44297;BME280;51842;47.450;8.654;2023-05-16T08:35:06;95194.66;;;13.80;80.39
44297;BME280;51842;47.450;8.654;2023-05-16T08:37:32;95191.88;;;13.85;82.11
44297;BME280;51842;47.450;8.654;2023-05-16T08:39:59;95195.47;;;13.94;80.94
44297;BME280;51842;47.450;8.654;2023-05-16T08:42:25;95196.19;;;14.00;80.87
44297;BME280;51842;47.450;8.654;2023-05-16T08:44:52;95191.63;;;14.00;80.81
44297;BME280;51842;47.450;8.654;2023-05-16T08:47:19;95193.53;;;14.14;82.48
44297;BME280;51842;47.450;8.654;2023-05-16T08:49:51;95189.25;;;14.12;79.83
44297;BME280;51842;47.450;8.654;2023-05-16T08:52:25;95195.91;;;14.29;78.42
44297;BME280;51842;47.450;8.654;2023-05-16T08:55:01;95191.38;;;14.43;78.62
44297;BME280;51842;47.450;8.654;2023-05-16T08:57:32;95189.31;;;14.68;78.00
44297;BME280;51842;47.450;8.654;2023-05-16T08:59:59;95185.25;;;15.07;76.28
44297;BME280;51842;47.450;8.654;2023-05-16T09:02:28;95182.59;;;15.29;74.50
44297;BME280;51842;47.450;8.654;2023-05-16T09:04:56;95175.16;;;15.26;73.28
44297;BME280;51842;47.450;8.654;2023-05-16T09:07:22;95172.97;;;15.50;74.48
44297;BME280;51842;47.450;8.654;2023-05-16T09:09:49;95170.84;;;15.61;72.24
44297;BME280;51842;47.450;8.654;2023-05-16T09:12:15;95171.09;;;15.73;72.12
44297;BME280;51842;47.450;8.654;2023-05-16T09:14:41;95177.63;;;15.81;70.95
44297;BME280;51842;47.450;8.654;2023-05-16T09:17:08;95171.81;;;15.88;71.60
44297;BME280;51842;47.450;8.654;2023-05-16T09:19:43;95169.56;;;15.81;70.46
44297;BME280;51842;47.450;8.654;2023-05-16T09:22:12;95176.69;;;15.63;69.85
44297;BME280;51842;47.450;8.654;2023-05-16T09:24:39;95182.47;;;15.34;75.98
44297;BME280;51842;47.450;8.654;2023-05-16T09:27:13;95174.78;;;15.19;78.33
44297;BME280;51842;47.450;8.654;2023-05-16T09:29:41;95181.41;;;14.85;80.27
44297;BME280;51842;47.450;8.654;2023-05-16T09:32:14;95186.00;;;14.57;82.29
44297;BME280;51842;47.450;8.654;2023-05-16T09:34:47;95177.84;;;13.93;83.97
44297;BME280;51842;47.450;8.654;2023-05-16T09:37:22;95178.84;;;13.51;88.98
44297;BME280;51842;47.450;8.654;2023-05-16T09:39:53;95180.03;;;13.26;90.53
44297;BME280;51842;47.450;8.654;2023-05-16T09:42:20;95176.44;;;13.11;91.29
44297;BME280;51842;47.450;8.654;2023-05-16T09:44:52;95180.22;;;12.91;89.33
44297;BME280;51842;47.450;8.654;2023-05-16T09:47:21;95180.03;;;12.64;90.61
44297;BME280;51842;47.450;8.654;2023-05-16T09:49:56;95177.69;;;12.38;91.93
44297;BME280;51842;47.450;8.654;2023-05-16T09:52:26;95181.16;;;12.15;94.65
44297;BME280;51842;47.450;8.654;2023-05-16T09:54:51;95180.28;;;11.95;95.21
44297;BME280;51842;47.450;8.654;2023-05-16T09:57:20;95180.31;;;11.90;96.49
44297;BME280;51842;47.450;8.654;2023-05-16T09:59:51;95182.00;;;11.81;96.47
44297;BME280;51842;47.450;8.654;2023-05-16T10:02:18;95179.63;;;11.79;97.62
44297;BME280;51842;47.450;8.654;2023-05-16T10:04:44;95176.72;;;11.76;98.66
44297;BME280;51842;47.450;8.654;2023-05-16T10:07:10;95180.75;;;11.73;100.00
44297;BME280;51842;47.450;8.654;2023-05-16T10:09:38;95192.25;;;11.69;100.00
44297;BME280;51842;47.450;8.654;2023-05-16T10:12:07;95181.06;;;11.67;100.00
44297;BME280;51842;47.450;8.654;2023-05-16T10:14:37;95175.50;;;11.63;100.00
44297;BME280;51842;47.450;8.654;2023-05-16T10:17:11;95172.59;;;11.60;100.00
44297;BME280;51842;47.450;8.654;2023-05-16T10:19:39;95179.06;;;11.53;100.00
44297;BME280;51842;47.450;8.654;2023-05-16T10:22:07;95191.50;;;11.29;100.00
44297;BME280;51842;47.450;8.654;2023-05-16T10:24:43;95188.63;;;11.25;100.00
44297;BME280;51842;47.450;8.654;2023-05-16T10:27:14;95185.66;;;11.27;100.00
44297;BME280;51842;47.450;8.654;2023-05-16T10:29:41;95181.91;;;11.28;100.00
44297;BME280;51842;47.450;8.654;2023-05-16T10:32:08;95189.88;;;11.33;100.00
44297;BME280;51842;47.450;8.654;2023-05-16T10:34:34;95185.56;;;11.37;100.00
44297;BME280;51842;47.450;8.654;2023-05-16T10:37:01;95189.31;;;11.36;100.00
44297;BME280;51842;47.450;8.654;2023-05-16T10:39:29;95190.09;;;11.37;100.00
44297;BME280;51842;47.450;8.654;2023-05-16T10:41:57;95187.69;;;11.40;100.00
44297;BME280;51842;47.450;8.654;2023-05-16T10:44:25;95190.41;;;11.35;100.00
44297;BME280;51842;47.450;8.654;2023-05-16T10:46:51;95187.50;;;11.31;100.00
44297;BME280;51842;47.450;8.654;2023-05-16T10:49:25;95185.84;;;11.35;100.00
44297;BME280;51842;47.450;8.654;2023-05-16T10:52:09;95172.72;;;11.44;100.00
44297;BME280;51842;47.450;8.654;2023-05-16T10:54:48;95179.09;;;11.48;100.00
44297;BME280;51842;47.450;8.654;2023-05-16T10:57:22;95180.66;;;11.49;100.00
44297;BME280;51842;47.450;8.654;2023-05-16T10:59:50;95175.09;;;11.46;100.00
44297;BME280;51842;47.450;8.654;2023-05-16T11:02:31;95176.94;;;11.50;100.00
44297;BME280;51842;47.450;8.654;2023-05-16T11:05:01;95184.66;;;11.52;100.00
44297;BME280;51842;47.450;8.654;2023-05-16T11:07:35;95196.97;;;11.48;100.00
44297;BME280;51842;47.450;8.654;2023-05-16T11:10:15;95187.97;;;11.39;100.00
44297;BME280;51842;47.450;8.654;2023-05-16T11:12:48;95204.00;;;11.33;100.00
44297;BME280;51842;47.450;8.654;2023-05-16T11:15:26;95208.00;;;11.31;100.00
44297;BME280;51842;47.450;8.654;2023-05-16T11:18:13;95205.91;;;11.28;100.00
44297;BME280;51842;47.450;8.654;2023-05-16T11:20:40;95189.66;;;11.24;100.00
44297;BME280;51842;47.450;8.654;2023-05-16T11:26:03;95189.19;;;11.17;100.00
44297;BME280;51842;47.450;8.654;2023-05-16T11:28:29;95194.03;;;11.10;100.00
44297;BME280;51842;47.450;8.654;2023-05-16T11:30:58;95193.91;;;10.91;100.00
44297;BME280;51842;47.450;8.654;2023-05-16T11:33:24;95203.00;;;10.85;100.00
44297;BME280;51842;47.450;8.654;2023-05-16T11:36:04;95205.44;;;10.76;100.00
44297;BME280;51842;47.450;8.654;2023-05-16T11:38:31;95211.25;;;10.83;100.00
44297;BME280;51842;47.450;8.654;2023-05-16T11:41:07;95205.66;;;10.80;100.00
44297;BME280;51842;47.450;8.654;2023-05-16T11:43:44;95211.78;;;10.80;100.00
44297;BME280;51842;47.450;8.654;2023-05-16T11:46:12;95205.38;;;10.86;100.00
44297;BME280;51842;47.450;8.654;2023-05-16T11:48:38;95205.66;;;10.85;100.00
44297;BME280;51842;47.450;8.654;2023-05-16T11:51:04;95215.53;;;10.84;100.00
44297;BME280;51842;47.450;8.654;2023-05-16T11:53:31;95218.72;;;10.81;100.00
44297;BME280;51842;47.450;8.654;2023-05-16T11:55:58;95214.75;;;10.79;100.00
44297;BME280;51842;47.450;8.654;2023-05-16T11:58:26;95212.63;;;10.76;100.00
44297;BME280;51842;47.450;8.654;2023-05-16T12:00:53;95209.66;;;10.82;100.00
44297;BME280;51842;47.450;8.654;2023-05-16T12:03:19;95212.31;;;10.87;100.00
44297;BME280;51842;47.450;8.654;2023-05-16T12:06:03;95223.28;;;10.71;100.00
44297;BME280;51842;47.450;8.654;2023-05-16T12:08:29;95224.59;;;10.78;100.00
44297;BME280;51842;47.450;8.654;2023-05-16T12:10:55;95224.31;;;10.85;100.00
44297;BME280;51842;47.450;8.654;2023-05-16T12:13:23;95232.53;;;10.94;100.00
44297;BME280;51842;47.450;8.654;2023-05-16T12:15:50;95227.53;;;10.82;100.00
44297;BME280;51842;47.450;8.654;2023-05-16T12:18:17;95229.88;;;10.94;100.00
44297;BME280;51842;47.450;8.654;2023-05-16T12:20:44;95229.25;;;11.02;100.00
44297;BME280;51842;47.450;8.654;2023-05-16T12:23:11;95232.41;;;11.09;100.00
44297;BME280;51842;47.450;8.654;2023-05-16T12:25:43;95231.31;;;11.15;100.00
44297;BME280;51842;47.450;8.654;2023-05-16T12:28:13;95225.97;;;11.20;100.00
44297;BME280;51842;47.450;8.654;2023-05-16T12:30:43;95237.56;;;11.40;100.00
44297;BME280;51842;47.450;8.654;2023-05-16T12:33:13;95237.88;;;11.33;97.64
44297;BME280;51842;47.450;8.654;2023-05-16T12:35:44;95239.16;;;11.41;98.14
44297;BME280;51842;47.450;8.654;2023-05-16T12:38:13;95239.97;;;11.41;96.92
44297;BME280;51842;47.450;8.654;2023-05-16T12:40:42;95242.25;;;11.53;96.71
44297;BME280;51842;47.450;8.654;2023-05-16T12:43:22;95238.56;;;11.49;93.69
44297;BME280;51842;47.450;8.654;2023-05-16T12:45:53;95242.31;;;11.48;93.81
44297;BME280;51842;47.450;8.654;2023-05-16T12:48:20;95241.19;;;11.54;94.52
44297;BME280;51842;47.450;8.654;2023-05-16T12:50:46;95238.97;;;11.66;95.10
44297;BME280;51842;47.450;8.654;2023-05-16T12:53:15;95243.81;;;11.59;92.88
44297;BME280;51842;47.450;8.654;2023-05-16T12:55:43;95236.91;;;11.53;91.94
44297;BME280;51842;47.450;8.654;2023-05-16T12:58:10;95241.97;;;11.60;91.56
44297;BME280;51842;47.450;8.654;2023-05-16T13:00:36;95245.88;;;11.67;92.29
44297;BME280;51842;47.450;8.654;2023-05-16T13:03:04;95245.75;;;11.82;92.50
44297;BME280;51842;47.450;8.654;2023-05-16T13:05:31;95253.25;;;11.86;90.98
44297;BME280;51842;47.450;8.654;2023-05-16T13:07:56;95253.25;;;11.86;90.45
44297;BME280;51842;47.450;8.654;2023-05-16T13:10:22;95255.66;;;11.82;91.08